sensor_id;sensor_type;location;lat;lon;timestamp;P1;durP1;ratioP1;P2;durP2;ratioP2
74777;SDS011;63298;53.164;8.610;2022-10-16T00:01:07;2.15;;;1.42;;
74777;SDS011;63298;53.164;8.610;2022-10-16T00:03:34;4.32;;;2.20;;
74777;SDS011;63298;53.164;8.610;2022-10-16T00:06:00;1.45;;;1.33;;
74777;SDS011;63298;53.164;8.610;2022-10-16T00:08:26;4.10;;;1.50;;
74777;SDS011;63298;53.164;8.610;2022-10-16T00:10:52;2.17;;;1.27;;
74777;SDS011;63298;53.164;8.610;2022-10-16T00:13:17;4.03;;;1.35;;
74777;SDS011;63298;53.164;8.610;2022-10-16T00:15:43;3.97;;;1.50;;
74777;SDS011;63298;53.164;8.610;2022-10-16T00:18:11;3.28;;;1.48;;
74777;SDS011;63298;53.164;8.610;2022-10-16T00:20:37;3.40;;;1.35;;
74777;SDS011;63298;53.164;8.610;2022-10-16T00:23:03;3.25;;;1.40;;
74777;SDS011;63298;53.164;8.610;2022-10-16T00:25:29;3.42;;;1.38;;
74777;SDS011;63298;53.164;8.610;2022-10-16T00:27:55;2.50;;;1.35;;
74777;SDS011;63298;53.164;8.610;2022-10-16T00:30:20;3.10;;;1.37;;
74777;SDS011;63298;53.164;8.610;2022-10-16T00:32:45;3.38;;;1.73;;
74777;SDS011;63298;53.164;8.610;2022-10-16T00:35:11;5.32;;;1.40;;
74777;SDS011;63298;53.164;8.610;2022-10-16T00:37:36;3.03;;;1.23;;
74777;SDS011;63298;53.164;8.610;2022-10-16T00:40:01;5.40;;;1.40;;
74777;SDS011;63298;53.164;8.610;2022-10-16T00:42:27;4.35;;;1.50;;
74777;SDS011;63298;53.164;8.610;2022-10-16T00:44:53;1.97;;;1.20;;
74777;SDS011;63298;53.164;8.610;2022-10-16T00:49:56;3.55;;;1.30;;
74777;SDS011;63298;53.164;8.610;2022-10-16T00:52:24;1.42;;;1.15;;
74777;SDS011;63298;53.164;8.610;2022-10-16T00:54:50;6.38;;;1.38;;
74777;SDS011;63298;53.164;8.610;2022-10-16T00:57:17;3.40;;;1.20;;
74777;SDS011;63298;53.164;8.610;2022-10-16T00:59:43;3.17;;;1.10;;
74777;SDS011;63298;53.164;8.610;2022-10-16T01:02:10;2.70;;;1.23;;
74777;SDS011;63298;53.164;8.610;2022-10-16T01:04:44;1.27;;;1.17;;
74777;SDS011;63298;53.164;8.610;2022-10-16T01:07:19;2.15;;;1.13;;
74777;SDS011;63298;53.164;8.610;2022-10-16T01:12:26;7.55;;;1.20;;
74777;SDS011;63298;53.164;8.610;2022-10-16T01:20:47;2.47;;;1.10;;
74777;SDS011;63298;53.164;8.610;2022-10-16T01:28:27;2.13;;;1.30;;
74777;SDS011;63298;53.164;8.610;2022-10-16T01:30:59;1.35;;;1.20;;
74777;SDS011;63298;53.164;8.610;2022-10-16T01:33:38;1.55;;;0.93;;
74777;SDS011;63298;53.164;8.610;2022-10-16T01:36:10;2.47;;;1.15;;
74777;SDS011;63298;53.164;8.610;2022-10-16T01:38:41;1.58;;;1.00;;
74777;SDS011;63298;53.164;8.610;2022-10-16T01:41:11;1.67;;;1.10;;
74777;SDS011;63298;53.164;8.610;2022-10-16T01:43:43;1.42;;;1.10;;
74777;SDS011;63298;53.164;8.610;2022-10-16T01:46:14;4.35;;;1.23;;
74777;SDS011;63298;53.164;8.610;2022-10-16T01:48:43;2.45;;;0.95;;
74777;SDS011;63298;53.164;8.610;2022-10-16T01:51:10;4.10;;;1.75;;
74777;SDS011;63298;53.164;8.610;2022-10-16T01:53:38;4.05;;;1.38;;
74777;SDS011;63298;53.164;8.610;2022-10-16T01:56:07;1.75;;;1.38;;
74777;SDS011;63298;53.164;8.610;2022-10-16T01:58:36;3.53;;;1.35;;
74777;SDS011;63298;53.164;8.610;2022-10-16T02:01:07;7.05;;;1.42;;
74777;SDS011;63298;53.164;8.610;2022-10-16T02:03:37;1.98;;;1.40;;
74777;SDS011;63298;53.164;8.610;2022-10-16T02:06:06;2.20;;;1.40;;
74777;SDS011;63298;53.164;8.610;2022-10-16T02:08:32;3.05;;;1.02;;
74777;SDS011;63298;53.164;8.610;2022-10-16T02:10:58;6.30;;;1.40;;
74777;SDS011;63298;53.164;8.610;2022-10-16T02:13:26;1.30;;;1.10;;
74777;SDS011;63298;53.164;8.610;2022-10-16T02:15:57;1.98;;;1.23;;
74777;SDS011;63298;53.164;8.610;2022-10-16T02:18:26;3.65;;;1.20;;
74777;SDS011;63298;53.164;8.610;2022-10-16T02:20:53;1.45;;;1.33;;
74777;SDS011;63298;53.164;8.610;2022-10-16T02:26:17;2.90;;;1.52;;
74777;SDS011;63298;53.164;8.610;2022-10-16T02:29:00;1.50;;;1.20;;
74777;SDS011;63298;53.164;8.610;2022-10-16T02:31:31;2.60;;;1.33;;
74777;SDS011;63298;53.164;8.610;2022-10-16T02:33:58;5.13;;;1.15;;
74777;SDS011;63298;53.164;8.610;2022-10-16T02:36:25;2.38;;;1.00;;
74777;SDS011;63298;53.164;8.610;2022-10-16T02:38:55;7.75;;;1.70;;
74777;SDS011;63298;53.164;8.610;2022-10-16T02:41:21;3.10;;;1.40;;
74777;SDS011;63298;53.164;8.610;2022-10-16T02:43:48;1.48;;;1.00;;
74777;SDS011;63298;53.164;8.610;2022-10-16T02:46:13;3.90;;;1.50;;
74777;SDS011;63298;53.164;8.610;2022-10-16T02:48:39;5.00;;;1.52;;
74777;SDS011;63298;53.164;8.610;2022-10-16T02:51:04;1.55;;;1.20;;
74777;SDS011;63298;53.164;8.610;2022-10-16T02:53:30;2.63;;;1.08;;
74777;SDS011;63298;53.164;8.610;2022-10-16T02:55:55;5.55;;;0.93;;
74777;SDS011;63298;53.164;8.610;2022-10-16T02:58:21;1.77;;;1.38;;
74777;SDS011;63298;53.164;8.610;2022-10-16T03:00:47;1.27;;;1.00;;
74777;SDS011;63298;53.164;8.610;2022-10-16T03:03:15;7.53;;;1.42;;
74777;SDS011;63298;53.164;8.610;2022-10-16T03:05:42;2.30;;;1.20;;
74777;SDS011;63298;53.164;8.610;2022-10-16T03:08:08;5.68;;;1.40;;
74777;SDS011;63298;53.164;8.610;2022-10-16T03:10:33;3.10;;;1.50;;
74777;SDS011;63298;53.164;8.610;2022-10-16T03:12:59;1.48;;;1.38;;
74777;SDS011;63298;53.164;8.610;2022-10-16T03:15:25;1.88;;;1.15;;
74777;SDS011;63298;53.164;8.610;2022-10-16T03:17:51;4.05;;;1.17;;
74777;SDS011;63298;53.164;8.610;2022-10-16T03:20:17;3.63;;;1.33;;
74777;SDS011;63298;53.164;8.610;2022-10-16T03:22:42;3.65;;;1.23;;
74777;SDS011;63298;53.164;8.610;2022-10-16T03:25:07;2.47;;;1.38;;
74777;SDS011;63298;53.164;8.610;2022-10-16T03:27:33;2.03;;;1.27;;
74777;SDS011;63298;53.164;8.610;2022-10-16T03:29:58;5.22;;;1.75;;
74777;SDS011;63298;53.164;8.610;2022-10-16T03:32:24;6.97;;;1.48;;
74777;SDS011;63298;53.164;8.610;2022-10-16T03:34:50;3.65;;;1.48;;
74777;SDS011;63298;53.164;8.610;2022-10-16T03:37:16;3.90;;;1.30;;
74777;SDS011;63298;53.164;8.610;2022-10-16T03:39:41;5.10;;;1.80;;
74777;SDS011;63298;53.164;8.610;2022-10-16T03:42:06;3.97;;;1.57;;
74777;SDS011;63298;53.164;8.610;2022-10-16T03:44:32;5.68;;;1.73;;
74777;SDS011;63298;53.164;8.610;2022-10-16T03:46:57;2.90;;;1.63;;
74777;SDS011;63298;53.164;8.610;2022-10-16T03:49:23;2.95;;;1.63;;
74777;SDS011;63298;53.164;8.610;2022-10-16T03:51:48;3.70;;;1.58;;
74777;SDS011;63298;53.164;8.610;2022-10-16T03:54:13;3.37;;;1.80;;
74777;SDS011;63298;53.164;8.610;2022-10-16T03:56:39;5.93;;;1.60;;
74777;SDS011;63298;53.164;8.610;2022-10-16T03:59:04;5.38;;;2.15;;
74777;SDS011;63298;53.164;8.610;2022-10-16T04:01:30;2.45;;;1.98;;
74777;SDS011;63298;53.164;8.610;2022-10-16T04:03:55;6.05;;;1.77;;
74777;SDS011;63298;53.164;8.610;2022-10-16T04:06:20;6.97;;;2.20;;
74777;SDS011;63298;53.164;8.610;2022-10-16T04:08:46;3.15;;;2.00;;
74777;SDS011;63298;53.164;8.610;2022-10-16T04:11:11;5.15;;;2.05;;
74777;SDS011;63298;53.164;8.610;2022-10-16T04:13:37;2.78;;;2.10;;
74777;SDS011;63298;53.164;8.610;2022-10-16T04:16:02;9.00;;;2.40;;
74777;SDS011;63298;53.164;8.610;2022-10-16T04:18:28;4.60;;;2.47;;
74777;SDS011;63298;53.164;8.610;2022-10-16T04:20:54;4.78;;;2.78;;
74777;SDS011;63298;53.164;8.610;2022-10-16T04:23:19;9.90;;;2.50;;
74777;SDS011;63298;53.164;8.610;2022-10-16T04:25:45;6.82;;;2.67;;
74777;SDS011;63298;53.164;8.610;2022-10-16T04:28:10;7.00;;;3.10;;
74777;SDS011;63298;53.164;8.610;2022-10-16T04:30:37;7.07;;;2.70;;
74777;SDS011;63298;53.164;8.610;2022-10-16T04:33:03;5.43;;;3.42;;
74777;SDS011;63298;53.164;8.610;2022-10-16T04:35:28;13.80;;;3.17;;
74777;SDS011;63298;53.164;8.610;2022-10-16T04:37:54;4.65;;;3.35;;
74777;SDS011;63298;53.164;8.610;2022-10-16T04:40:22;5.50;;;3.38;;
74777;SDS011;63298;53.164;8.610;2022-10-16T04:42:49;5.95;;;3.75;;
74777;SDS011;63298;53.164;8.610;2022-10-16T04:45:14;7.07;;;3.38;;
74777;SDS011;63298;53.164;8.610;2022-10-16T04:47:40;6.55;;;3.33;;
74777;SDS011;63298;53.164;8.610;2022-10-16T04:50:05;6.70;;;3.65;;
74777;SDS011;63298;53.164;8.610;2022-10-16T04:52:31;6.05;;;3.88;;
74777;SDS011;63298;53.164;8.610;2022-10-16T04:54:57;7.95;;;3.90;;
74777;SDS011;63298;53.164;8.610;2022-10-16T04:57:23;6.35;;;3.60;;
74777;SDS011;63298;53.164;8.610;2022-10-16T04:59:49;7.43;;;3.40;;
74777;SDS011;63298;53.164;8.610;2022-10-16T05:02:14;19.73;;;3.63;;
74777;SDS011;63298;53.164;8.610;2022-10-16T05:04:40;10.27;;;4.00;;
74777;SDS011;63298;53.164;8.610;2022-10-16T05:07:05;5.90;;;3.72;;
74777;SDS011;63298;53.164;8.610;2022-10-16T05:09:31;8.13;;;4.10;;
74777;SDS011;63298;53.164;8.610;2022-10-16T05:11:56;8.13;;;3.90;;
74777;SDS011;63298;53.164;8.610;2022-10-16T05:14:22;4.40;;;3.63;;
74777;SDS011;63298;53.164;8.610;2022-10-16T05:16:47;7.85;;;4.38;;
74777;SDS011;63298;53.164;8.610;2022-10-16T05:19:12;7.53;;;3.78;;
74777;SDS011;63298;53.164;8.610;2022-10-16T05:21:38;7.85;;;4.32;;
74777;SDS011;63298;53.164;8.610;2022-10-16T05:24:03;8.50;;;3.90;;
74777;SDS011;63298;53.164;8.610;2022-10-16T05:26:28;9.32;;;4.10;;
74777;SDS011;63298;53.164;8.610;2022-10-16T05:28:54;5.18;;;4.30;;
74777;SDS011;63298;53.164;8.610;2022-10-16T05:31:19;5.15;;;4.15;;
74777;SDS011;63298;53.164;8.610;2022-10-16T05:33:45;10.75;;;4.63;;
74777;SDS011;63298;53.164;8.610;2022-10-16T05:36:11;6.15;;;4.43;;
74777;SDS011;63298;53.164;8.610;2022-10-16T05:38:36;10.07;;;4.90;;
74777;SDS011;63298;53.164;8.610;2022-10-16T05:41:03;7.68;;;4.50;;
74777;SDS011;63298;53.164;8.610;2022-10-16T05:43:30;7.30;;;4.88;;
74777;SDS011;63298;53.164;8.610;2022-10-16T05:45:57;8.30;;;4.63;;
74777;SDS011;63298;53.164;8.610;2022-10-16T05:48:23;6.85;;;4.55;;
74777;SDS011;63298;53.164;8.610;2022-10-16T05:50:57;11.38;;;5.40;;
74777;SDS011;63298;53.164;8.610;2022-10-16T05:53:34;7.55;;;5.28;;
74777;SDS011;63298;53.164;8.610;2022-10-16T05:56:00;10.90;;;4.82;;
74777;SDS011;63298;53.164;8.610;2022-10-16T05:58:30;9.20;;;5.32;;
74777;SDS011;63298;53.164;8.610;2022-10-16T06:01:00;12.75;;;5.35;;
74777;SDS011;63298;53.164;8.610;2022-10-16T06:05:57;8.70;;;5.93;;
74777;SDS011;63298;53.164;8.610;2022-10-16T06:08:22;14.38;;;4.90;;
74777;SDS011;63298;53.164;8.610;2022-10-16T06:10:49;8.43;;;4.88;;
74777;SDS011;63298;53.164;8.610;2022-10-16T06:13:25;8.43;;;4.70;;
74777;SDS011;63298;53.164;8.610;2022-10-16T06:15:51;10.75;;;5.30;;
74777;SDS011;63298;53.164;8.610;2022-10-16T06:18:16;8.98;;;4.88;;
74777;SDS011;63298;53.164;8.610;2022-10-16T06:20:42;5.13;;;4.40;;
74777;SDS011;63298;53.164;8.610;2022-10-16T06:23:07;8.25;;;4.80;;
74777;SDS011;63298;53.164;8.610;2022-10-16T06:25:32;7.75;;;4.15;;
74777;SDS011;63298;53.164;8.610;2022-10-16T06:27:58;7.18;;;4.30;;
74777;SDS011;63298;53.164;8.610;2022-10-16T06:30:23;7.18;;;4.32;;
74777;SDS011;63298;53.164;8.610;2022-10-16T06:32:49;7.28;;;4.47;;
74777;SDS011;63298;53.164;8.610;2022-10-16T06:35:14;4.22;;;3.72;;
74777;SDS011;63298;53.164;8.610;2022-10-16T06:37:39;7.88;;;4.88;;
74777;SDS011;63298;53.164;8.610;2022-10-16T06:40:05;5.50;;;3.72;;
74777;SDS011;63298;53.164;8.610;2022-10-16T06:42:31;6.90;;;3.90;;
74777;SDS011;63298;53.164;8.610;2022-10-16T06:44:56;6.85;;;3.65;;
74777;SDS011;63298;53.164;8.610;2022-10-16T06:47:21;5.25;;;4.32;;
74777;SDS011;63298;53.164;8.610;2022-10-16T06:49:47;6.70;;;4.43;;
74777;SDS011;63298;53.164;8.610;2022-10-16T06:52:13;8.90;;;3.90;;
74777;SDS011;63298;53.164;8.610;2022-10-16T06:54:38;4.50;;;3.85;;
74777;SDS011;63298;53.164;8.610;2022-10-16T06:57:04;6.70;;;4.03;;
74777;SDS011;63298;53.164;8.610;2022-10-16T06:59:29;8.23;;;4.00;;
74777;SDS011;63298;53.164;8.610;2022-10-16T07:01:54;8.18;;;4.00;;
74777;SDS011;63298;53.164;8.610;2022-10-16T07:04:20;10.33;;;4.50;;
74777;SDS011;63298;53.164;8.610;2022-10-16T07:06:45;6.65;;;3.65;;
74777;SDS011;63298;53.164;8.610;2022-10-16T07:09:11;6.85;;;3.75;;
74777;SDS011;63298;53.164;8.610;2022-10-16T07:11:37;6.53;;;3.92;;
74777;SDS011;63298;53.164;8.610;2022-10-16T07:14:04;10.55;;;4.60;;
74777;SDS011;63298;53.164;8.610;2022-10-16T07:16:31;5.75;;;3.67;;
74777;SDS011;63298;53.164;8.610;2022-10-16T07:18:58;5.40;;;4.32;;
74777;SDS011;63298;53.164;8.610;2022-10-16T07:21:26;8.85;;;3.65;;
74777;SDS011;63298;53.164;8.610;2022-10-16T07:23:53;7.10;;;3.88;;
74777;SDS011;63298;53.164;8.610;2022-10-16T07:26:21;6.10;;;3.70;;
74777;SDS011;63298;53.164;8.610;2022-10-16T07:28:47;8.02;;;3.63;;
74777;SDS011;63298;53.164;8.610;2022-10-16T07:31:13;10.20;;;4.40;;
74777;SDS011;63298;53.164;8.610;2022-10-16T07:33:41;7.13;;;3.75;;
74777;SDS011;63298;53.164;8.610;2022-10-16T07:36:07;4.45;;;3.88;;
74777;SDS011;63298;53.164;8.610;2022-10-16T07:38:33;8.52;;;3.60;;
74777;SDS011;63298;53.164;8.610;2022-10-16T07:40:59;5.93;;;4.05;;
74777;SDS011;63298;53.164;8.610;2022-10-16T07:43:26;6.50;;;3.97;;
74777;SDS011;63298;53.164;8.610;2022-10-16T07:45:52;4.60;;;3.47;;
74777;SDS011;63298;53.164;8.610;2022-10-16T07:48:18;5.72;;;3.35;;
74777;SDS011;63298;53.164;8.610;2022-10-16T07:50:45;6.05;;;3.72;;
74777;SDS011;63298;53.164;8.610;2022-10-16T07:53:10;5.68;;;3.78;;
74777;SDS011;63298;53.164;8.610;2022-10-16T07:55:36;7.65;;;3.78;;
74777;SDS011;63298;53.164;8.610;2022-10-16T07:58:02;6.95;;;4.13;;
74777;SDS011;63298;53.164;8.610;2022-10-16T08:00:27;11.35;;;4.07;;
74777;SDS011;63298;53.164;8.610;2022-10-16T08:02:53;6.30;;;3.40;;
74777;SDS011;63298;53.164;8.610;2022-10-16T08:05:18;7.95;;;3.47;;
74777;SDS011;63298;53.164;8.610;2022-10-16T08:07:49;13.82;;;3.47;;
74777;SDS011;63298;53.164;8.610;2022-10-16T08:10:18;8.80;;;3.67;;
74777;SDS011;63298;53.164;8.610;2022-10-16T08:12:45;5.10;;;3.25;;
74777;SDS011;63298;53.164;8.610;2022-10-16T08:15:11;7.32;;;2.95;;
74777;SDS011;63298;53.164;8.610;2022-10-16T08:17:36;6.47;;;3.45;;
74777;SDS011;63298;53.164;8.610;2022-10-16T08:20:03;7.93;;;2.92;;
74777;SDS011;63298;53.164;8.610;2022-10-16T08:22:29;4.63;;;3.00;;
74777;SDS011;63298;53.164;8.610;2022-10-16T08:24:54;4.88;;;2.38;;
74777;SDS011;63298;53.164;8.610;2022-10-16T08:27:20;5.65;;;2.80;;
74777;SDS011;63298;53.164;8.610;2022-10-16T08:29:45;2.28;;;2.00;;
74777;SDS011;63298;53.164;8.610;2022-10-16T08:32:11;4.43;;;2.45;;
74777;SDS011;63298;53.164;8.610;2022-10-16T08:34:36;4.28;;;2.60;;
74777;SDS011;63298;53.164;8.610;2022-10-16T08:37:01;7.32;;;2.65;;
74777;SDS011;63298;53.164;8.610;2022-10-16T08:39:27;5.38;;;2.10;;
74777;SDS011;63298;53.164;8.610;2022-10-16T08:47:26;3.85;;;2.10;;
74777;SDS011;63298;53.164;8.610;2022-10-16T08:50:02;6.53;;;2.53;;
74777;SDS011;63298;53.164;8.610;2022-10-16T08:52:35;5.25;;;2.10;;
74777;SDS011;63298;53.164;8.610;2022-10-16T08:55:08;6.78;;;1.90;;
74777;SDS011;63298;53.164;8.610;2022-10-16T09:00:14;2.85;;;1.80;;
74777;SDS011;63298;53.164;8.610;2022-10-16T09:16:58;3.60;;;1.38;;
74777;SDS011;63298;53.164;8.610;2022-10-16T09:19:50;2.78;;;1.30;;
74777;SDS011;63298;53.164;8.610;2022-10-16T09:22:21;2.88;;;1.10;;
74777;SDS011;63298;53.164;8.610;2022-10-16T09:24:51;3.75;;;1.42;;
74777;SDS011;63298;53.164;8.610;2022-10-16T09:27:17;4.70;;;1.30;;
74777;SDS011;63298;53.164;8.610;2022-10-16T09:29:42;7.20;;;1.52;;
74777;SDS011;63298;53.164;8.610;2022-10-16T09:32:14;7.82;;;1.30;;
74777;SDS011;63298;53.164;8.610;2022-10-16T09:34:52;7.18;;;1.08;;
74777;SDS011;63298;53.164;8.610;2022-10-16T09:39:47;2.90;;;1.20;;
74777;SDS011;63298;53.164;8.610;2022-10-16T09:42:17;4.05;;;1.17;;
74777;SDS011;63298;53.164;8.610;2022-10-16T09:44:51;7.20;;;1.30;;
74777;SDS011;63298;53.164;8.610;2022-10-16T09:47:22;3.95;;;1.27;;
74777;SDS011;63298;53.164;8.610;2022-10-16T09:49:55;11.63;;;2.25;;
74777;SDS011;63298;53.164;8.610;2022-10-16T09:52:22;7.53;;;1.50;;
74777;SDS011;63298;53.164;8.610;2022-10-16T09:54:52;3.90;;;1.27;;
74777;SDS011;63298;53.164;8.610;2022-10-16T09:57:23;7.72;;;1.23;;
74777;SDS011;63298;53.164;8.610;2022-10-16T09:59:52;1.92;;;0.80;;
74777;SDS011;63298;53.164;8.610;2022-10-16T10:02:23;5.25;;;1.13;;
74777;SDS011;63298;53.164;8.610;2022-10-16T10:05:01;4.57;;;0.98;;
74777;SDS011;63298;53.164;8.610;2022-10-16T10:07:31;3.15;;;1.00;;
74777;SDS011;63298;53.164;8.610;2022-10-16T10:09:58;1.80;;;1.17;;
74777;SDS011;63298;53.164;8.610;2022-10-16T10:17:25;5.32;;;1.00;;
74777;SDS011;63298;53.164;8.610;2022-10-16T10:19:57;4.00;;;1.00;;
74777;SDS011;63298;53.164;8.610;2022-10-16T10:41:24;3.47;;;0.75;;
74777;SDS011;63298;53.164;8.610;2022-10-16T10:43:57;3.40;;;0.90;;
74777;SDS011;63298;53.164;8.610;2022-10-16T10:46:45;8.48;;;1.40;;
74777;SDS011;63298;53.164;8.610;2022-10-16T10:52:29;2.03;;;0.60;;
74777;SDS011;63298;53.164;8.610;2022-10-16T11:01:00;2.67;;;0.77;;
74777;SDS011;63298;53.164;8.610;2022-10-16T11:05:59;5.57;;;1.17;;
74777;SDS011;63298;53.164;8.610;2022-10-16T11:11:51;2.13;;;0.80;;
74777;SDS011;63298;53.164;8.610;2022-10-16T11:17:04;5.60;;;0.70;;
74777;SDS011;63298;53.164;8.610;2022-10-16T11:19:44;2.83;;;1.08;;
74777;SDS011;63298;53.164;8.610;2022-10-16T11:22:34;1.20;;;0.73;;
74777;SDS011;63298;53.164;8.610;2022-10-16T11:25:18;2.85;;;0.80;;
74777;SDS011;63298;53.164;8.610;2022-10-16T11:27:52;6.03;;;1.70;;
74777;SDS011;63298;53.164;8.610;2022-10-16T11:38:15;2.97;;;0.90;;
74777;SDS011;63298;53.164;8.610;2022-10-16T11:41:00;1.75;;;0.80;;
74777;SDS011;63298;53.164;8.610;2022-10-16T11:43:43;4.28;;;1.33;;
74777;SDS011;63298;53.164;8.610;2022-10-16T11:46:19;4.93;;;0.98;;
74777;SDS011;63298;53.164;8.610;2022-10-16T11:51:43;10.65;;;1.10;;
74777;SDS011;63298;53.164;8.610;2022-10-16T11:57:13;4.93;;;0.90;;
74777;SDS011;63298;53.164;8.610;2022-10-16T11:59:46;2.35;;;0.80;;
74777;SDS011;63298;53.164;8.610;2022-10-16T12:02:39;2.95;;;0.73;;
74777;SDS011;63298;53.164;8.610;2022-10-16T12:08:32;2.47;;;0.90;;
74777;SDS011;63298;53.164;8.610;2022-10-16T12:11:59;4.35;;;0.90;;
74777;SDS011;63298;53.164;8.610;2022-10-16T12:14:58;8.48;;;1.25;;
74777;SDS011;63298;53.164;8.610;2022-10-16T12:16:58;2.40;;;1.10;;
74777;SDS011;63298;53.164;8.610;2022-10-16T12:19:27;6.05;;;0.95;;
74777;SDS011;63298;53.164;8.610;2022-10-16T12:21:58;4.43;;;1.02;;
74777;SDS011;63298;53.164;8.610;2022-10-16T12:24:35;6.13;;;0.80;;
74777;SDS011;63298;53.164;8.610;2022-10-16T12:29:57;3.20;;;0.98;;
74777;SDS011;63298;53.164;8.610;2022-10-16T12:32:27;4.03;;;0.90;;
74777;SDS011;63298;53.164;8.610;2022-10-16T12:35:02;5.95;;;1.13;;
74777;SDS011;63298;53.164;8.610;2022-10-16T12:37:31;6.00;;;1.13;;
74777;SDS011;63298;53.164;8.610;2022-10-16T12:40:12;7.93;;;1.05;;
74777;SDS011;63298;53.164;8.610;2022-10-16T12:42:40;9.93;;;0.93;;
74777;SDS011;63298;53.164;8.610;2022-10-16T12:47:58;6.38;;;1.00;;
74777;SDS011;63298;53.164;8.610;2022-10-16T12:50:30;5.43;;;1.10;;
74777;SDS011;63298;53.164;8.610;2022-10-16T12:53:04;6.18;;;1.08;;
74777;SDS011;63298;53.164;8.610;2022-10-16T12:55:45;6.18;;;1.15;;
74777;SDS011;63298;53.164;8.610;2022-10-16T13:04:01;7.25;;;1.08;;
74777;SDS011;63298;53.164;8.610;2022-10-16T13:06:33;3.85;;;0.95;;
74777;SDS011;63298;53.164;8.610;2022-10-16T13:09:19;5.47;;;0.90;;
74777;SDS011;63298;53.164;8.610;2022-10-16T13:12:07;4.55;;;0.80;;
74777;SDS011;63298;53.164;8.610;2022-10-16T13:27:53;3.22;;;0.80;;
74777;SDS011;63298;53.164;8.610;2022-10-16T13:30:22;5.43;;;1.30;;
74777;SDS011;63298;53.164;8.610;2022-10-16T13:33:01;3.75;;;1.15;;
74777;SDS011;63298;53.164;8.610;2022-10-16T13:35:31;4.30;;;0.90;;
74777;SDS011;63298;53.164;8.610;2022-10-16T13:38:19;3.20;;;0.93;;
74777;SDS011;63298;53.164;8.610;2022-10-16T13:40:51;3.92;;;1.08;;
74777;SDS011;63298;53.164;8.610;2022-10-16T13:43:37;4.22;;;1.00;;
74777;SDS011;63298;53.164;8.610;2022-10-16T13:46:16;7.65;;;1.25;;
74777;SDS011;63298;53.164;8.610;2022-10-16T13:48:56;5.97;;;1.10;;
74777;SDS011;63298;53.164;8.610;2022-10-16T13:51:23;3.30;;;0.88;;
74777;SDS011;63298;53.164;8.610;2022-10-16T13:53:52;7.22;;;1.50;;
74777;SDS011;63298;53.164;8.610;2022-10-16T13:56:21;3.55;;;1.17;;
74777;SDS011;63298;53.164;8.610;2022-10-16T13:58:57;5.35;;;1.00;;
74777;SDS011;63298;53.164;8.610;2022-10-16T14:01:40;3.95;;;0.93;;
74777;SDS011;63298;53.164;8.610;2022-10-16T14:04:08;7.03;;;1.10;;
74777;SDS011;63298;53.164;8.610;2022-10-16T14:06:36;3.50;;;1.10;;
74777;SDS011;63298;53.164;8.610;2022-10-16T14:09:21;3.75;;;1.58;;
74777;SDS011;63298;53.164;8.610;2022-10-16T14:11:55;3.83;;;1.30;;
74777;SDS011;63298;53.164;8.610;2022-10-16T14:14:25;4.15;;;1.00;;
74777;SDS011;63298;53.164;8.610;2022-10-16T14:16:56;7.97;;;1.25;;
74777;SDS011;63298;53.164;8.610;2022-10-16T14:19:23;3.35;;;1.20;;
74777;SDS011;63298;53.164;8.610;2022-10-16T14:21:54;4.88;;;1.15;;
74777;SDS011;63298;53.164;8.610;2022-10-16T14:24:53;5.40;;;1.17;;
74777;SDS011;63298;53.164;8.610;2022-10-16T14:27:31;3.95;;;1.08;;
74777;SDS011;63298;53.164;8.610;2022-10-16T14:33:00;4.25;;;1.10;;
74777;SDS011;63298;53.164;8.610;2022-10-16T14:37:59;5.93;;;1.35;;
74777;SDS011;63298;53.164;8.610;2022-10-16T14:40:27;5.07;;;1.23;;
74777;SDS011;63298;53.164;8.610;2022-10-16T14:43:01;3.70;;;1.00;;
74777;SDS011;63298;53.164;8.610;2022-10-16T14:45:29;5.85;;;1.30;;
74777;SDS011;63298;53.164;8.610;2022-10-16T14:47:58;5.63;;;1.40;;
74777;SDS011;63298;53.164;8.610;2022-10-16T14:50:26;3.33;;;0.95;;
74777;SDS011;63298;53.164;8.610;2022-10-16T14:52:52;3.15;;;0.93;;
74777;SDS011;63298;53.164;8.610;2022-10-16T14:55:18;9.93;;;1.10;;
74777;SDS011;63298;53.164;8.610;2022-10-16T14:57:44;6.38;;;2.00;;
74777;SDS011;63298;53.164;8.610;2022-10-16T15:00:16;1.88;;;0.98;;
74777;SDS011;63298;53.164;8.610;2022-10-16T15:02:45;8.10;;;1.98;;
74777;SDS011;63298;53.164;8.610;2022-10-16T15:05:18;4.85;;;1.60;;
74777;SDS011;63298;53.164;8.610;2022-10-16T15:07:45;5.28;;;1.30;;
74777;SDS011;63298;53.164;8.610;2022-10-16T15:10:15;5.75;;;1.40;;
74777;SDS011;63298;53.164;8.610;2022-10-16T15:12:45;4.63;;;1.20;;
74777;SDS011;63298;53.164;8.610;2022-10-16T15:17:51;11.10;;;1.48;;
74777;SDS011;63298;53.164;8.610;2022-10-16T15:20:20;7.13;;;1.45;;
74777;SDS011;63298;53.164;8.610;2022-10-16T15:22:46;3.75;;;1.10;;
74777;SDS011;63298;53.164;8.610;2022-10-16T15:25:23;5.05;;;1.40;;
74777;SDS011;63298;53.164;8.610;2022-10-16T15:27:57;2.67;;;1.15;;
74777;SDS011;63298;53.164;8.610;2022-10-16T15:30:24;5.50;;;1.10;;
74777;SDS011;63298;53.164;8.610;2022-10-16T15:32:51;3.83;;;1.02;;
74777;SDS011;63298;53.164;8.610;2022-10-16T15:35:16;4.03;;;1.02;;
74777;SDS011;63298;53.164;8.610;2022-10-16T15:37:42;5.65;;;1.50;;
74777;SDS011;63298;53.164;8.610;2022-10-16T15:40:08;4.88;;;1.50;;
74777;SDS011;63298;53.164;8.610;2022-10-16T15:42:34;3.90;;;1.10;;
74777;SDS011;63298;53.164;8.610;2022-10-16T15:45:00;5.95;;;1.13;;
74777;SDS011;63298;53.164;8.610;2022-10-16T15:47:25;9.63;;;1.33;;
74777;SDS011;63298;53.164;8.610;2022-10-16T15:49:52;4.57;;;1.15;;
74777;SDS011;63298;53.164;8.610;2022-10-16T15:52:17;8.82;;;1.60;;
74777;SDS011;63298;53.164;8.610;2022-10-16T15:54:43;6.93;;;1.40;;
74777;SDS011;63298;53.164;8.610;2022-10-16T15:57:08;11.23;;;1.40;;
74777;SDS011;63298;53.164;8.610;2022-10-16T15:59:34;7.70;;;1.50;;
74777;SDS011;63298;53.164;8.610;2022-10-16T16:01:59;4.85;;;1.20;;
74777;SDS011;63298;53.164;8.610;2022-10-16T16:04:25;2.85;;;1.15;;
74777;SDS011;63298;53.164;8.610;2022-10-16T16:06:50;3.72;;;1.15;;
74777;SDS011;63298;53.164;8.610;2022-10-16T16:09:16;3.28;;;1.45;;
74777;SDS011;63298;53.164;8.610;2022-10-16T16:11:41;8.32;;;1.60;;
74777;SDS011;63298;53.164;8.610;2022-10-16T16:14:07;2.53;;;0.90;;
74777;SDS011;63298;53.164;8.610;2022-10-16T16:16:36;10.70;;;1.55;;
74777;SDS011;63298;53.164;8.610;2022-10-16T16:19:02;4.00;;;1.25;;
74777;SDS011;63298;53.164;8.610;2022-10-16T16:21:29;5.47;;;1.77;;
74777;SDS011;63298;53.164;8.610;2022-10-16T16:23:56;5.35;;;2.30;;
74777;SDS011;63298;53.164;8.610;2022-10-16T16:26:29;6.00;;;1.88;;
74777;SDS011;63298;53.164;8.610;2022-10-16T16:28:57;4.88;;;1.27;;
74777;SDS011;63298;53.164;8.610;2022-10-16T16:31:29;3.95;;;1.42;;
74777;SDS011;63298;53.164;8.610;2022-10-16T16:33:56;5.25;;;1.52;;
74777;SDS011;63298;53.164;8.610;2022-10-16T16:36:22;5.30;;;1.30;;
74777;SDS011;63298;53.164;8.610;2022-10-16T16:38:50;4.82;;;1.25;;
74777;SDS011;63298;53.164;8.610;2022-10-16T16:41:20;5.20;;;1.60;;
74777;SDS011;63298;53.164;8.610;2022-10-16T16:43:54;9.27;;;2.45;;
74777;SDS011;63298;53.164;8.610;2022-10-16T16:46:20;4.30;;;1.90;;
74777;SDS011;63298;53.164;8.610;2022-10-16T16:48:47;8.13;;;2.72;;
74777;SDS011;63298;53.164;8.610;2022-10-16T16:51:14;3.97;;;2.05;;
74777;SDS011;63298;53.164;8.610;2022-10-16T16:53:42;4.18;;;1.92;;
74777;SDS011;63298;53.164;8.610;2022-10-16T16:56:08;6.05;;;2.55;;
74777;SDS011;63298;53.164;8.610;2022-10-16T16:58:34;3.45;;;1.83;;
74777;SDS011;63298;53.164;8.610;2022-10-16T17:01:01;8.35;;;2.22;;
74777;SDS011;63298;53.164;8.610;2022-10-16T17:03:28;3.38;;;2.10;;
74777;SDS011;63298;53.164;8.610;2022-10-16T17:05:57;3.40;;;1.70;;
74777;SDS011;63298;53.164;8.610;2022-10-16T17:08:24;3.38;;;1.85;;
74777;SDS011;63298;53.164;8.610;2022-10-16T17:10:49;7.95;;;3.15;;
74777;SDS011;63298;53.164;8.610;2022-10-16T17:13:15;9.25;;;5.32;;
74777;SDS011;63298;53.164;8.610;2022-10-16T17:15:48;5.68;;;2.50;;